sensor_id;sensor_type;location;lat;lon;timestamp;temperature;humidity
19888;DHT22;10106;51.332;12.336;2022-09-11T00:01:20;15.10;99.90
19888;DHT22;10106;51.332;12.336;2022-09-11T00:03:47;15.10;99.90
19888;DHT22;10106;51.332;12.336;2022-09-11T00:06:15;15.20;99.90
19888;DHT22;10106;51.332;12.336;2022-09-11T00:08:42;15.20;99.90
19888;DHT22;10106;51.332;12.336;2022-09-11T00:11:13;15.20;99.90
19888;DHT22;10106;51.332;12.336;2022-09-11T00:13:42;15.20;99.90
19888;DHT22;10106;51.332;12.336;2022-09-11T00:16:24;15.20;99.90
19888;DHT22;10106;51.332;12.336;2022-09-11T00:18:56;15.20;99.90
19888;DHT22;10106;51.332;12.336;2022-09-11T00:21:21;15.20;99.90
19888;DHT22;10106;51.332;12.336;2022-09-11T00:23:47;15.20;99.90
19888;DHT22;10106;51.332;12.336;2022-09-11T00:26:18;15.20;99.90
19888;DHT22;10106;51.332;12.336;2022-09-11T00:28:45;15.30;99.90
19888;DHT22;10106;51.332;12.336;2022-09-11T00:31:14;15.20;99.90
19888;DHT22;10106;51.332;12.336;2022-09-11T00:33:40;15.20;99.90
19888;DHT22;10106;51.332;12.336;2022-09-11T00:36:11;15.30;99.90
19888;DHT22;10106;51.332;12.336;2022-09-11T00:38:38;15.20;99.90
19888;DHT22;10106;51.332;12.336;2022-09-11T00:41:07;15.30;99.90
19888;DHT22;10106;51.332;12.336;2022-09-11T00:43:58;15.20;99.90
19888;DHT22;10106;51.332;12.336;2022-09-11T00:46:36;15.20;99.90
19888;DHT22;10106;51.332;12.336;2022-09-11T00:51:39;15.20;99.90
19888;DHT22;10106;51.332;12.336;2022-09-11T00:54:09;15.20;99.90
19888;DHT22;10106;51.332;12.336;2022-09-11T00:56:37;15.20;99.90
19888;DHT22;10106;51.332;12.336;2022-09-11T00:59:05;15.20;99.90
19888;DHT22;10106;51.332;12.336;2022-09-11T01:01:31;15.20;99.90
19888;DHT22;10106;51.332;12.336;2022-09-11T01:03:59;15.20;99.90
19888;DHT22;10106;51.332;12.336;2022-09-11T01:06:26;15.10;99.90
19888;DHT22;10106;51.332;12.336;2022-09-11T01:08:51;15.10;99.90
19888;DHT22;10106;51.332;12.336;2022-09-11T01:17:11;15.10;99.90
19888;DHT22;10106;51.332;12.336;2022-09-11T01:25:29;15.10;99.90
19888;DHT22;10106;51.332;12.336;2022-09-11T01:27:58;15.10;99.90
19888;DHT22;10106;51.332;12.336;2022-09-11T01:30:53;15.10;99.90
19888;DHT22;10106;51.332;12.336;2022-09-11T01:33:35;15.10;99.90
19888;DHT22;10106;51.332;12.336;2022-09-11T01:36:12;15.10;99.90
19888;DHT22;10106;51.332;12.336;2022-09-11T01:38:50;15.10;99.90
19888;DHT22;10106;51.332;12.336;2022-09-11T01:41:33;15.00;99.90
19888;DHT22;10106;51.332;12.336;2022-09-11T01:46:44;15.00;99.90
19888;DHT22;10106;51.332;12.336;2022-09-11T01:49:41;14.90;99.90
19888;DHT22;10106;51.332;12.336;2022-09-11T01:52:12;14.90;99.90
19888;DHT22;10106;51.332;12.336;2022-09-11T01:54:52;14.80;99.90
19888;DHT22;10106;51.332;12.336;2022-09-11T01:57:49;14.80;99.90
19888;DHT22;10106;51.332;12.336;2022-09-11T02:00:16;14.80;99.90
19888;DHT22;10106;51.332;12.336;2022-09-11T02:02:51;14.80;99.90
19888;DHT22;10106;51.332;12.336;2022-09-11T02:05:28;14.80;99.90
19888;DHT22;10106;51.332;12.336;2022-09-11T02:08:06;14.70;99.90
19888;DHT22;10106;51.332;12.336;2022-09-11T02:10:39;14.70;99.90
19888;DHT22;10106;51.332;12.336;2022-09-11T02:13:26;14.60;99.90
19888;DHT22;10106;51.332;12.336;2022-09-11T02:16:04;14.60;99.90
19888;DHT22;10106;51.332;12.336;2022-09-11T02:21:17;14.50;99.90
19888;DHT22;10106;51.332;12.336;2022-09-11T02:23:42;14.40;99.90
19888;DHT22;10106;51.332;12.336;2022-09-11T02:26:11;14.40;99.90
19888;DHT22;10106;51.332;12.336;2022-09-11T02:28:37;14.40;99.90
19888;DHT22;10106;51.332;12.336;2022-09-11T02:31:03;14.40;99.90
19888;DHT22;10106;51.332;12.336;2022-09-11T02:33:32;14.30;99.90
19888;DHT22;10106;51.332;12.336;2022-09-11T02:36:24;14.30;99.90
19888;DHT22;10106;51.332;12.336;2022-09-11T02:39:03;14.30;99.90
19888;DHT22;10106;51.332;12.336;2022-09-11T02:44:50;14.20;99.90
19888;DHT22;10106;51.332;12.336;2022-09-11T02:52:45;14.10;99.90
19888;DHT22;10106;51.332;12.336;2022-09-11T02:58:02;14.00;99.90
19888;DHT22;10106;51.332;12.336;2022-09-11T03:00:30;14.00;99.90
19888;DHT22;10106;51.332;12.336;2022-09-11T03:02:56;13.90;99.90
19888;DHT22;10106;51.332;12.336;2022-09-11T03:05:22;13.90;99.90
19888;DHT22;10106;51.332;12.336;2022-09-11T03:07:48;13.90;99.90
19888;DHT22;10106;51.332;12.336;2022-09-11T03:10:13;13.90;99.90
19888;DHT22;10106;51.332;12.336;2022-09-11T03:12:39;13.90;99.90
19888;DHT22;10106;51.332;12.336;2022-09-11T03:15:06;13.80;99.90
19888;DHT22;10106;51.332;12.336;2022-09-11T03:17:34;13.80;99.90
19888;DHT22;10106;51.332;12.336;2022-09-11T03:19:59;13.80;99.90
19888;DHT22;10106;51.332;12.336;2022-09-11T03:22:25;13.80;99.90
19888;DHT22;10106;51.332;12.336;2022-09-11T03:24:50;13.80;99.90
19888;DHT22;10106;51.332;12.336;2022-09-11T03:27:16;13.80;99.90
19888;DHT22;10106;51.332;12.336;2022-09-11T03:29:41;13.80;99.90
19888;DHT22;10106;51.332;12.336;2022-09-11T03:32:09;13.80;99.90
19888;DHT22;10106;51.332;12.336;2022-09-11T03:34:34;13.80;99.90
19888;DHT22;10106;51.332;12.336;2022-09-11T03:37:00;13.70;99.90
19888;DHT22;10106;51.332;12.336;2022-09-11T03:39:27;13.70;99.90
19888;DHT22;10106;51.332;12.336;2022-09-11T03:41:52;13.70;99.90
19888;DHT22;10106;51.332;12.336;2022-09-11T03:44:19;13.70;99.90
19888;DHT22;10106;51.332;12.336;2022-09-11T03:46:44;13.70;99.90
19888;DHT22;10106;51.332;12.336;2022-09-11T03:49:10;13.70;99.90
19888;DHT22;10106;51.332;12.336;2022-09-11T03:51:35;13.70;99.90
19888;DHT22;10106;51.332;12.336;2022-09-11T03:54:02;13.70;99.90
19888;DHT22;10106;51.332;12.336;2022-09-11T03:56:28;13.60;99.90
19888;DHT22;10106;51.332;12.336;2022-09-11T03:58:55;13.60;99.90
19888;DHT22;10106;51.332;12.336;2022-09-11T04:01:21;13.60;99.90
19888;DHT22;10106;51.332;12.336;2022-09-11T04:03:47;13.60;99.90
19888;DHT22;10106;51.332;12.336;2022-09-11T04:06:12;13.60;99.90
19888;DHT22;10106;51.332;12.336;2022-09-11T04:08:39;13.60;99.90
19888;DHT22;10106;51.332;12.336;2022-09-11T04:11:05;13.60;99.90
19888;DHT22;10106;51.332;12.336;2022-09-11T04:13:33;13.60;99.90
19888;DHT22;10106;51.332;12.336;2022-09-11T04:16:05;13.60;99.90
19888;DHT22;10106;51.332;12.336;2022-09-11T04:18:34;13.70;99.90
19888;DHT22;10106;51.332;12.336;2022-09-11T04:21:18;13.70;99.90
19888;DHT22;10106;51.332;12.336;2022-09-11T04:23:44;13.80;99.90
19888;DHT22;10106;51.332;12.336;2022-09-11T04:26:21;13.80;99.90
19888;DHT22;10106;51.332;12.336;2022-09-11T04:28:47;13.90;99.90
19888;DHT22;10106;51.332;12.336;2022-09-11T04:31:13;14.00;99.90
19888;DHT22;10106;51.332;12.336;2022-09-11T04:33:40;14.10;99.90
19888;DHT22;10106;51.332;12.336;2022-09-11T04:36:08;14.10;99.90
19888;DHT22;10106;51.332;12.336;2022-09-11T04:38:34;14.20;99.90
19888;DHT22;10106;51.332;12.336;2022-09-11T04:41:02;14.20;99.90
19888;DHT22;10106;51.332;12.336;2022-09-11T04:43:29;14.20;99.90
19888;DHT22;10106;51.332;12.336;2022-09-11T04:46:08;14.20;99.90
19888;DHT22;10106;51.332;12.336;2022-09-11T04:48:34;14.20;99.90
19888;DHT22;10106;51.332;12.336;2022-09-11T04:51:04;14.20;99.90
19888;DHT22;10106;51.332;12.336;2022-09-11T04:53:31;14.20;99.90
19888;DHT22;10106;51.332;12.336;2022-09-11T04:56:01;14.20;99.90
19888;DHT22;10106;51.332;12.336;2022-09-11T04:58:28;14.20;99.90
19888;DHT22;10106;51.332;12.336;2022-09-11T05:06:08;14.20;99.90
19888;DHT22;10106;51.332;12.336;2022-09-11T05:08:35;14.20;99.90
19888;DHT22;10106;51.332;12.336;2022-09-11T05:11:01;14.20;99.90
19888;DHT22;10106;51.332;12.336;2022-09-11T05:13:27;14.20;99.90
19888;DHT22;10106;51.332;12.336;2022-09-11T05:16:26;14.20;99.90
19888;DHT22;10106;51.332;12.336;2022-09-11T05:18:52;14.20;99.90
19888;DHT22;10106;51.332;12.336;2022-09-11T05:21:19;14.40;99.90
19888;DHT22;10106;51.332;12.336;2022-09-11T05:23:48;14.50;99.90
19888;DHT22;10106;51.332;12.336;2022-09-11T05:26:22;14.60;99.90
19888;DHT22;10106;51.332;12.336;2022-09-11T05:28:53;14.70;99.90
19888;DHT22;10106;51.332;12.336;2022-09-11T05:31:19;14.90;99.90
19888;DHT22;10106;51.332;12.336;2022-09-11T05:33:46;15.00;99.90
19888;DHT22;10106;51.332;12.336;2022-09-11T05:36:13;15.10;99.90
19888;DHT22;10106;51.332;12.336;2022-09-11T05:38:40;15.20;99.90
19888;DHT22;10106;51.332;12.336;2022-09-11T05:41:09;15.50;99.90
19888;DHT22;10106;51.332;12.336;2022-09-11T05:43:36;15.90;99.90
19888;DHT22;10106;51.332;12.336;2022-09-11T05:46:05;16.50;99.90
19888;DHT22;10106;51.332;12.336;2022-09-11T05:48:33;16.90;99.90
19888;DHT22;10106;51.332;12.336;2022-09-11T05:51:00;17.00;99.90
19888;DHT22;10106;51.332;12.336;2022-09-11T05:53:28;17.20;99.90
19888;DHT22;10106;51.332;12.336;2022-09-11T05:55:57;17.40;99.90
19888;DHT22;10106;51.332;12.336;2022-09-11T05:58:29;17.70;99.90
19888;DHT22;10106;51.332;12.336;2022-09-11T06:01:02;17.90;99.90
19888;DHT22;10106;51.332;12.336;2022-09-11T06:03:29;17.90;99.90
19888;DHT22;10106;51.332;12.336;2022-09-11T06:05:58;17.90;99.90
19888;DHT22;10106;51.332;12.336;2022-09-11T06:08:25;17.80;99.90
19888;DHT22;10106;51.332;12.336;2022-09-11T06:10:50;17.90;99.90
19888;DHT22;10106;51.332;12.336;2022-09-11T06:13:16;18.10;99.90
19888;DHT22;10106;51.332;12.336;2022-09-11T06:15:45;17.80;99.90
19888;DHT22;10106;51.332;12.336;2022-09-11T06:18:12;17.50;99.90
19888;DHT22;10106;51.332;12.336;2022-09-11T06:20:38;17.10;99.90
19888;DHT22;10106;51.332;12.336;2022-09-11T06:23:05;16.80;99.90
19888;DHT22;10106;51.332;12.336;2022-09-11T06:25:30;16.40;99.90
19888;DHT22;10106;51.332;12.336;2022-09-11T06:27:56;16.10;99.90
19888;DHT22;10106;51.332;12.336;2022-09-11T06:30:22;15.90;99.90
19888;DHT22;10106;51.332;12.336;2022-09-11T06:32:48;15.70;99.90
19888;DHT22;10106;51.332;12.336;2022-09-11T06:35:14;15.60;99.90
19888;DHT22;10106;51.332;12.336;2022-09-11T06:37:39;15.60;99.90
19888;DHT22;10106;51.332;12.336;2022-09-11T06:40:05;15.60;99.90
19888;DHT22;10106;51.332;12.336;2022-09-11T06:42:31;15.50;99.90
19888;DHT22;10106;51.332;12.336;2022-09-11T06:44:57;15.50;99.90
19888;DHT22;10106;51.332;12.336;2022-09-11T06:47:23;15.40;99.90
19888;DHT22;10106;51.332;12.336;2022-09-11T06:49:48;15.30;99.90
19888;DHT22;10106;51.332;12.336;2022-09-11T06:52:14;15.30;99.90
19888;DHT22;10106;51.332;12.336;2022-09-11T06:54:39;15.40;99.90
19888;DHT22;10106;51.332;12.336;2022-09-11T06:57:05;15.30;99.90
19888;DHT22;10106;51.332;12.336;2022-09-11T06:59:31;15.10;99.90
19888;DHT22;10106;51.332;12.336;2022-09-11T07:01:57;15.10;99.90
19888;DHT22;10106;51.332;12.336;2022-09-11T07:04:25;15.10;99.90
19888;DHT22;10106;51.332;12.336;2022-09-11T07:06:50;15.00;99.90
19888;DHT22;10106;51.332;12.336;2022-09-11T07:09:16;14.90;99.90
19888;DHT22;10106;51.332;12.336;2022-09-11T07:11:42;14.80;99.90
19888;DHT22;10106;51.332;12.336;2022-09-11T07:14:09;14.90;99.90
19888;DHT22;10106;51.332;12.336;2022-09-11T07:16:35;14.90;99.90
19888;DHT22;10106;51.332;12.336;2022-09-11T07:19:01;15.10;99.90
19888;DHT22;10106;51.332;12.336;2022-09-11T07:21:29;15.10;99.90
19888;DHT22;10106;51.332;12.336;2022-09-11T07:23:56;15.10;99.90
19888;DHT22;10106;51.332;12.336;2022-09-11T07:26:24;15.10;99.90
19888;DHT22;10106;51.332;12.336;2022-09-11T07:28:51;15.20;99.90
19888;DHT22;10106;51.332;12.336;2022-09-11T07:31:20;15.30;99.90
19888;DHT22;10106;51.332;12.336;2022-09-11T07:33:46;15.30;99.90
19888;DHT22;10106;51.332;12.336;2022-09-11T07:36:17;15.40;99.90
19888;DHT22;10106;51.332;12.336;2022-09-11T07:38:45;15.40;99.90
19888;DHT22;10106;51.332;12.336;2022-09-11T07:41:12;15.50;99.90
19888;DHT22;10106;51.332;12.336;2022-09-11T07:43:39;15.50;99.90
19888;DHT22;10106;51.332;12.336;2022-09-11T07:46:07;15.50;99.90
19888;DHT22;10106;51.332;12.336;2022-09-11T07:48:36;15.60;99.90
19888;DHT22;10106;51.332;12.336;2022-09-11T07:51:08;15.70;99.90
19888;DHT22;10106;51.332;12.336;2022-09-11T07:53:40;15.80;99.90
19888;DHT22;10106;51.332;12.336;2022-09-11T07:56:11;15.80;99.90
19888;DHT22;10106;51.332;12.336;2022-09-11T07:58:38;16.10;99.90
19888;DHT22;10106;51.332;12.336;2022-09-11T08:01:07;16.10;99.90
19888;DHT22;10106;51.332;12.336;2022-09-11T08:03:33;16.30;99.90
19888;DHT22;10106;51.332;12.336;2022-09-11T08:06:01;16.50;99.90
19888;DHT22;10106;51.332;12.336;2022-09-11T08:08:27;16.50;99.90
19888;DHT22;10106;51.332;12.336;2022-09-11T08:11:01;16.50;99.90
19888;DHT22;10106;51.332;12.336;2022-09-11T08:13:27;16.60;99.90
19888;DHT22;10106;51.332;12.336;2022-09-11T08:15:53;16.60;99.90
19888;DHT22;10106;51.332;12.336;2022-09-11T08:18:19;16.60;99.90
19888;DHT22;10106;51.332;12.336;2022-09-11T08:20:45;16.60;99.90
19888;DHT22;10106;51.332;12.336;2022-09-11T08:23:11;16.60;99.90
19888;DHT22;10106;51.332;12.336;2022-09-11T08:25:40;16.50;99.90
19888;DHT22;10106;51.332;12.336;2022-09-11T08:28:06;16.40;99.90
19888;DHT22;10106;51.332;12.336;2022-09-11T08:30:33;16.40;99.90
19888;DHT22;10106;51.332;12.336;2022-09-11T08:33:01;16.40;99.90
19888;DHT22;10106;51.332;12.336;2022-09-11T08:35:27;16.50;99.90
19888;DHT22;10106;51.332;12.336;2022-09-11T08:37:52;16.60;99.90
19888;DHT22;10106;51.332;12.336;2022-09-11T08:40:19;16.60;99.90
19888;DHT22;10106;51.332;12.336;2022-09-11T08:42:46;16.60;99.90
19888;DHT22;10106;51.332;12.336;2022-09-11T08:45:17;16.70;99.90
19888;DHT22;10106;51.332;12.336;2022-09-11T08:47:51;16.70;99.90
19888;DHT22;10106;51.332;12.336;2022-09-11T08:50:26;16.70;99.90
19888;DHT22;10106;51.332;12.336;2022-09-11T08:52:52;16.70;99.90
19888;DHT22;10106;51.332;12.336;2022-09-11T08:55:27;16.70;99.90
19888;DHT22;10106;51.332;12.336;2022-09-11T08:58:25;16.80;99.90
19888;DHT22;10106;51.332;12.336;2022-09-11T09:04:01;16.80;99.90
19888;DHT22;10106;51.332;12.336;2022-09-11T09:07:04;16.80;99.90
19888;DHT22;10106;51.332;12.336;2022-09-11T09:14:50;16.60;99.90
19888;DHT22;10106;51.332;12.336;2022-09-11T09:17:38;16.50;99.90
19888;DHT22;10106;51.332;12.336;2022-09-11T09:20:36;16.40;99.90
19888;DHT22;10106;51.332;12.336;2022-09-11T09:23:09;16.50;99.90
19888;DHT22;10106;51.332;12.336;2022-09-11T09:25:39;16.40;99.90
19888;DHT22;10106;51.332;12.336;2022-09-11T09:28:40;16.50;99.90
19888;DHT22;10106;51.332;12.336;2022-09-11T09:31:09;16.50;99.90
19888;DHT22;10106;51.332;12.336;2022-09-11T09:36:29;16.60;99.90
19888;DHT22;10106;51.332;12.336;2022-09-11T09:39:00;16.60;99.90
19888;DHT22;10106;51.332;12.336;2022-09-11T09:41:54;16.70;99.90
19888;DHT22;10106;51.332;12.336;2022-09-11T09:46:54;16.60;99.90
19888;DHT22;10106;51.332;12.336;2022-09-11T09:49:25;16.50;99.90
19888;DHT22;10106;51.332;12.336;2022-09-11T09:51:54;16.50;99.90
19888;DHT22;10106;51.332;12.336;2022-09-11T09:54:24;16.50;99.90
19888;DHT22;10106;51.332;12.336;2022-09-11T09:57:09;16.50;99.90
19888;DHT22;10106;51.332;12.336;2022-09-11T10:02:40;16.70;99.90
19888;DHT22;10106;51.332;12.336;2022-09-11T10:07:58;16.70;99.90
19888;DHT22;10106;51.332;12.336;2022-09-11T10:10:35;16.60;99.90
19888;DHT22;10106;51.332;12.336;2022-09-11T10:13:20;16.60;99.90
19888;DHT22;10106;51.332;12.336;2022-09-11T10:15:52;16.50;99.90
19888;DHT22;10106;51.332;12.336;2022-09-11T10:26:25;16.70;99.90
19888;DHT22;10106;51.332;12.336;2022-09-11T10:29:05;16.80;99.90
19888;DHT22;10106;51.332;12.336;2022-09-11T10:31:39;16.90;99.90
19888;DHT22;10106;51.332;12.336;2022-09-11T10:34:05;16.90;99.90
19888;DHT22;10106;51.332;12.336;2022-09-11T10:36:32;17.10;99.90
19888;DHT22;10106;51.332;12.336;2022-09-11T10:39:00;17.10;99.90
19888;DHT22;10106;51.332;12.336;2022-09-11T10:41:27;17.10;99.90
19888;DHT22;10106;51.332;12.336;2022-09-11T10:46:36;17.00;99.90
19888;DHT22;10106;51.332;12.336;2022-09-11T10:51:39;17.00;99.90
19888;DHT22;10106;51.332;12.336;2022-09-11T10:56:33;17.10;99.90
19888;DHT22;10106;51.332;12.336;2022-09-11T10:59:05;17.10;99.90
19888;DHT22;10106;51.332;12.336;2022-09-11T11:01:35;17.10;99.90
19888;DHT22;10106;51.332;12.336;2022-09-11T11:04:04;16.90;99.90
19888;DHT22;10106;51.332;12.336;2022-09-11T11:12:26;16.70;99.90
19888;DHT22;10106;51.332;12.336;2022-09-11T11:15:17;16.50;99.90
19888;DHT22;10106;51.332;12.336;2022-09-11T11:17:59;16.50;99.90
19888;DHT22;10106;51.332;12.336;2022-09-11T11:21:00;16.50;99.90
19888;DHT22;10106;51.332;12.336;2022-09-11T11:40:53;15.90;99.90
19888;DHT22;10106;51.332;12.336;2022-09-11T11:43:35;15.90;99.90
19888;DHT22;10106;51.332;12.336;2022-09-11T11:46:12;15.90;99.90
19888;DHT22;10106;51.332;12.336;2022-09-11T11:48:49;15.90;99.90
19888;DHT22;10106;51.332;12.336;2022-09-11T11:51:20;15.90;99.90
19888;DHT22;10106;51.332;12.336;2022-09-11T11:54:02;15.90;99.90
19888;DHT22;10106;51.332;12.336;2022-09-11T11:57:05;15.90;99.90
19888;DHT22;10106;51.332;12.336;2022-09-11T11:59:46;15.90;99.90
19888;DHT22;10106;51.332;12.336;2022-09-11T12:02:25;16.00;99.90
19888;DHT22;10106;51.332;12.336;2022-09-11T12:05:00;16.10;99.90
19888;DHT22;10106;51.332;12.336;2022-09-11T12:07:29;16.10;99.90
19888;DHT22;10106;51.332;12.336;2022-09-11T12:10:01;16.20;99.90
19888;DHT22;10106;51.332;12.336;2022-09-11T12:13:04;16.30;99.90
19888;DHT22;10106;51.332;12.336;2022-09-11T12:15:25;16.40;99.90
19888;DHT22;10106;51.332;12.336;2022-09-11T12:18:22;16.50;99.90
19888;DHT22;10106;51.332;12.336;2022-09-11T12:32:48;18.50;99.90
19888;DHT22;10106;51.332;12.336;2022-09-11T12:35:47;18.70;99.90
19888;DHT22;10106;51.332;12.336;2022-09-11T12:38:38;18.80;99.90
19888;DHT22;10106;51.332;12.336;2022-09-11T12:41:20;18.80;99.90
19888;DHT22;10106;51.332;12.336;2022-09-11T12:43:48;18.90;99.90
19888;DHT22;10106;51.332;12.336;2022-09-11T12:48:50;18.90;99.90
19888;DHT22;10106;51.332;12.336;2022-09-11T12:51:20;18.90;99.90
19888;DHT22;10106;51.332;12.336;2022-09-11T12:53:50;19.00;99.90
19888;DHT22;10106;51.332;12.336;2022-09-11T12:56:19;19.00;99.90
19888;DHT22;10106;51.332;12.336;2022-09-11T12:58:55;19.10;99.90
19888;DHT22;10106;51.332;12.336;2022-09-11T13:01:28;19.30;99.90
19888;DHT22;10106;51.332;12.336;2022-09-11T13:11:54;19.20;99.90
19888;DHT22;10106;51.332;12.336;2022-09-11T13:14:44;19.20;99.90
19888;DHT22;10106;51.332;12.336;2022-09-11T13:17:14;19.10;99.90
19888;DHT22;10106;51.332;12.336;2022-09-11T13:19:40;19.10;99.90
19888;DHT22;10106;51.332;12.336;2022-09-11T13:22:26;19.30;99.90
19888;DHT22;10106;51.332;12.336;2022-09-11T13:25:16;19.30;99.90
19888;DHT22;10106;51.332;12.336;2022-09-11T13:27:56;19.50;99.90
19888;DHT22;10106;51.332;12.336;2022-09-11T13:30:28;19.50;99.90
19888;DHT22;10106;51.332;12.336;2022-09-11T13:33:21;19.50;99.90
19888;DHT22;10106;51.332;12.336;2022-09-11T13:35:51;19.50;99.90
19888;DHT22;10106;51.332;12.336;2022-09-11T13:38:24;19.60;99.90
19888;DHT22;10106;51.332;12.336;2022-09-11T13:40:55;19.80;99.90
19888;DHT22;10106;51.332;12.336;2022-09-11T13:43:41;20.00;99.90
19888;DHT22;10106;51.332;12.336;2022-09-11T13:48:41;20.40;99.90
19888;DHT22;10106;51.332;12.336;2022-09-11T13:51:11;20.50;99.90
19888;DHT22;10106;51.332;12.336;2022-09-11T13:53:38;20.70;99.90
19888;DHT22;10106;51.332;12.336;2022-09-11T13:56:05;20.70;99.90
19888;DHT22;10106;51.332;12.336;2022-09-11T13:58:40;20.80;99.90
19888;DHT22;10106;51.332;12.336;2022-09-11T14:01:15;20.70;99.90
19888;DHT22;10106;51.332;12.336;2022-09-11T14:03:44;20.60;99.90
19888;DHT22;10106;51.332;12.336;2022-09-11T14:06:15;20.60;99.90
19888;DHT22;10106;51.332;12.336;2022-09-11T14:08:42;20.60;99.90
19888;DHT22;10106;51.332;12.336;2022-09-11T14:11:29;20.50;99.90
19888;DHT22;10106;51.332;12.336;2022-09-11T14:16:36;20.50;99.90
19888;DHT22;10106;51.332;12.336;2022-09-11T14:19:17;20.50;99.90
19888;DHT22;10106;51.332;12.336;2022-09-11T14:21:45;20.40;99.90
19888;DHT22;10106;51.332;12.336;2022-09-11T14:27:00;20.50;99.90
19888;DHT22;10106;51.332;12.336;2022-09-11T14:29:30;20.30;99.90
19888;DHT22;10106;51.332;12.336;2022-09-11T14:32:29;20.30;99.90
19888;DHT22;10106;51.332;12.336;2022-09-11T14:35:13;20.20;99.90
19888;DHT22;10106;51.332;12.336;2022-09-11T14:37:41;19.90;99.90
19888;DHT22;10106;51.332;12.336;2022-09-11T14:40:16;19.80;99.90
19888;DHT22;10106;51.332;12.336;2022-09-11T14:42:42;19.70;99.90
19888;DHT22;10106;51.332;12.336;2022-09-11T14:45:18;19.50;99.90
19888;DHT22;10106;51.332;12.336;2022-09-11T14:47:45;19.40;99.90
19888;DHT22;10106;51.332;12.336;2022-09-11T14:50:11;19.40;99.90
19888;DHT22;10106;51.332;12.336;2022-09-11T14:52:38;19.30;99.90
19888;DHT22;10106;51.332;12.336;2022-09-11T14:55:04;19.10;99.90
19888;DHT22;10106;51.332;12.336;2022-09-11T14:57:33;19.00;99.90
19888;DHT22;10106;51.332;12.336;2022-09-11T14:59:58;18.80;99.90
19888;DHT22;10106;51.332;12.336;2022-09-11T15:02:27;18.80;99.90
19888;DHT22;10106;51.332;12.336;2022-09-11T15:04:54;18.70;99.90
19888;DHT22;10106;51.332;12.336;2022-09-11T15:07:21;18.50;99.90
19888;DHT22;10106;51.332;12.336;2022-09-11T15:09:51;18.50;99.90
19888;DHT22;10106;51.332;12.336;2022-09-11T15:12:17;18.40;99.90
19888;DHT22;10106;51.332;12.336;2022-09-11T15:14:43;18.40;99.90
19888;DHT22;10106;51.332;12.336;2022-09-11T15:17:18;18.50;99.90
19888;DHT22;10106;51.332;12.336;2022-09-11T15:19:44;18.60;99.90
19888;DHT22;10106;51.332;12.336;2022-09-11T15:22:12;18.70;99.90
19888;DHT22;10106;51.332;12.336;2022-09-11T15:24:38;19.00;99.90
19888;DHT22;10106;51.332;12.336;2022-09-11T15:27:03;19.20;99.90
19888;DHT22;10106;51.332;12.336;2022-09-11T15:29:29;19.50;99.90
19888;DHT22;10106;51.332;12.336;2022-09-11T15:31:54;19.60;99.90
19888;DHT22;10106;51.332;12.336;2022-09-11T15:34:21;19.70;99.90
19888;DHT22;10106;51.332;12.336;2022-09-11T15:36:47;19.60;99.90
19888;DHT22;10106;51.332;12.336;2022-09-11T15:39:17;19.50;99.90
19888;DHT22;10106;51.332;12.336;2022-09-11T15:41:43;19.30;99.90
19888;DHT22;10106;51.332;12.336;2022-09-11T15:44:20;19.10;99.90
19888;DHT22;10106;51.332;12.336;2022-09-11T15:46:51;19.00;99.90
19888;DHT22;10106;51.332;12.336;2022-09-11T15:49:18;18.80;99.90
19888;DHT22;10106;51.332;12.336;2022-09-11T15:51:46;18.70;99.90
19888;DHT22;10106;51.332;12.336;2022-09-11T15:54:12;18.70;99.90
19888;DHT22;10106;51.332;12.336;2022-09-11T15:56:38;18.60;99.90
19888;DHT22;10106;51.332;12.336;2022-09-11T15:59:04;18.50;99.90
19888;DHT22;10106;51.332;12.336;2022-09-11T16:01:32;18.40;99.90
19888;DHT22;10106;51.332;12.336;2022-09-11T16:04:06;18.40;99.90
19888;DHT22;10106;51.332;12.336;2022-09-11T16:06:37;18.30;99.90
19888;DHT22;10106;51.332;12.336;2022-09-11T16:09:05;18.30;99.90
19888;DHT22;10106;51.332;12.336;2022-09-11T16:11:32;18.20;99.90
19888;DHT22;10106;51.332;12.336;2022-09-11T16:13:59;18.20;99.90
19888;DHT22;10106;51.332;12.336;2022-09-11T16:16:25;18.20;99.90
19888;DHT22;10106;51.332;12.336;2022-09-11T16:18:52;18.20;99.90
19888;DHT22;10106;51.332;12.336;2022-09-11T16:21:18;18.10;99.90
19888;DHT22;10106;51.332;12.336;2022-09-11T16:23:44;18.10;99.90
19888;DHT22;10106;51.332;12.336;2022-09-11T16:26:12;18.10;99.90
19888;DHT22;10106;51.332;12.336;2022-09-11T16:28:39;18.10;99.90
19888;DHT22;10106;51.332;12.336;2022-09-11T16:31:06;18.00;99.90
19888;DHT22;10106;51.332;12.336;2022-09-11T16:33:35;17.90;99.90
19888;DHT22;10106;51.332;12.336;2022-09-11T16:36:06;17.90;99.90
19888;DHT22;10106;51.332;12.336;2022-09-11T16:38:35;17.90;99.90
19888;DHT22;10106;51.332;12.336;2022-09-11T16:41:24;17.80;99.90
19888;DHT22;10106;51.332;12.336;2022-09-11T16:43:51;17.80;99.90
19888;DHT22;10106;51.332;12.336;2022-09-11T16:46:22;17.70;99.90
19888;DHT22;10106;51.332;12.336;2022-09-11T16:48:49;17.70;99.90
19888;DHT22;10106;51.332;12.336;2022-09-11T16:51:17;17.60;99.90
19888;DHT22;10106;51.332;12.336;2022-09-11T16:53:43;17.60;99.90
19888;DHT22;10106;51.332;12.336;2022-09-11T16:56:12;17.60;99.90
19888;DHT22;10106;51.332;12.336;2022-09-11T16:58:39;17.50;99.90
19888;DHT22;10106;51.332;12.336;2022-09-11T17:01:15;17.50;99.90
19888;DHT22;10106;51.332;12.336;2022-09-11T17:03:43;17.40;99.90
19888;DHT22;10106;51.332;12.336;2022-09-11T17:06:09;17.30;99.90
19888;DHT22;10106;51.332;12.336;2022-09-11T17:08:35;17.20;99.90
19888;DHT22;10106;51.332;12.336;2022-09-11T17:11:04;17.20;99.90
19888;DHT22;10106;51.332;12.336;2022-09-11T17:13:31;17.10;99.90
19888;DHT22;10106;51.332;12.336;2022-09-11T17:16:08;17.00;99.90
19888;DHT22;10106;51.332;12.336;2022-09-11T17:18:34;17.00;99.90
19888;DHT22;10106;51.332;12.336;2022-09-11T17:21:07;16.90;99.90
19888;DHT22;10106;51.332;12.336;2022-09-11T17:23:34;16.80;99.90
19888;DHT22;10106;51.332;12.336;2022-09-11T17:26:05;16.80;99.90
19888;DHT22;10106;51.332;12.336;2022-09-11T17:28:32;16.70;99.90
19888;DHT22;10106;51.332;12.336;2022-09-11T17:31:07;16.70;99.90
19888;DHT22;10106;51.332;12.336;2022-09-11T17:33:34;16.50;99.90
19888;DHT22;10106;51.332;12.336;2022-09-11T17:36:00;16.50;99.90
19888;DHT22;10106;51.332;12.336;2022-09-11T17:38:27;16.50;99.90
19888;DHT22;10106;51.332;12.336;2022-09-11T17:40:56;16.50;99.90
19888;DHT22;10106;51.332;12.336;2022-09-11T17:43:24;16.60;99.90